Time;durP1;ratioP1;P1;durP2;ratioP2;P2;SDS_P1;SDS_P2;PMS_P1;PMS_P2;Temp;Humidity;BMP_temperature;BMP_pressure;BME280_temperature;BME280_humidity;BME280_pressure;Samples;Min_cycle;Max_cycle;Signal;HPM_P1;HPM_P2
2023/01/13 00:02:18;;;;;;;0.50;0.50;;;;;;;1.10;100.00;99767.03;5110825;28;20689;-64
2023/01/13 00:04:46;;;;;;;0.30;0.23;;;;;;;1.19;100.00;99765.16;5110549;28;20616;-63
2023/01/13 00:07:13;;;;;;;0.40;0.40;;;;;;;1.16;100.00;99760.19;5111089;28;20219;-63
2023/01/13 00:09:41;;;;;;;0.20;0.20;;;;;;;1.22;100.00;99760.06;5110479;28;20235;-63
2023/01/13 00:12:08;;;;;;;0.47;0.47;;;;;;;1.21;100.00;99756.72;5110808;28;20241;-63
2023/01/13 00:14:35;;;;;;;0.43;0.43;;;;;;;1.21;100.00;99760.94;5110306;28;20621;-63
2023/01/13 00:17:02;;;;;;;0.17;0.17;;;;;;;1.13;100.00;99764.47;5110516;28;20204;-63
2023/01/13 00:19:29;;;;;;;0.33;0.33;;;;;;;1.11;100.00;99766.19;5110770;28;20715;-63
2023/01/13 00:21:56;;;;;;;0.53;0.30;;;;;;;1.05;100.00;99766.31;5110995;28;20204;-63
2023/01/13 00:24:23;;;;;;;0.27;0.27;;;;;;;1.04;100.00;99772.19;5110639;28;20609;-63
2023/01/13 00:26:52;;;;;;;0.53;0.43;;;;;;;1.07;100.00;99769.63;5110269;28;20609;-63
2023/01/13 00:29:19;;;;;;;0.70;0.47;;;;;;;1.14;100.00;99770.31;5110352;28;20213;-63
2023/01/13 00:31:46;;;;;;;0.40;0.40;;;;;;;1.13;100.00;99772.03;5110239;28;20197;-63
2023/01/13 00:34:12;;;;;;;0.10;0.10;;;;;;;1.20;100.00;99769.34;5110395;28;20236;-63
2023/01/13 00:36:39;;;;;;;0.10;0.10;;;;;;;1.30;100.00;99775.81;5110511;28;20201;-63
2023/01/13 00:39:06;;;;;;;0.53;0.33;;;;;;;1.10;100.00;99784.66;5110167;28;20216;-63
2023/01/13 00:43:21;;;;;;;0.40;0.37;;;;;;;1.16;100.00;99777.81;5110155;28;20204;-63
2023/01/13 00:44:20;;;;;;;0.77;0.77;;;;;;;1.22;100.00;99782.72;5110180;28;20712;-64
2023/01/13 00:46:47;;;;;;;0.10;0.10;;;;;;;1.25;100.00;99777.63;5110254;28;20233;-64
2023/01/13 00:49:14;;;;;;;2.30;1.10;;;;;;;1.26;100.00;99766.69;5110111;28;20209;-63
2023/01/13 00:51:41;;;;;;;0.10;0.10;;;;;;;1.26;100.00;99769.22;5110025;28;20200;-63
2023/01/13 00:54:08;;;;;;;0.10;0.10;;;;;;;1.25;100.00;99762.50;5110080;28;20229;-64
2023/01/13 00:56:34;;;;;;;0.60;0.60;;;;;;;1.33;100.00;99768.19;5110109;28;20197;-64
2023/01/13 00:59:02;;;;;;;1.40;0.57;;;;;;;1.29;100.00;99764.09;5110149;28;20210;-63
2023/01/13 01:01:31;;;;;;;0.23;0.20;;;;;;;1.25;100.00;99762.50;5109469;28;20255;-63
2023/01/13 01:03:58;;;;;;;0.53;0.40;;;;;;;1.17;100.00;99766.91;5110287;28;20217;-63
2023/01/13 01:06:26;;;;;;;0.23;0.23;;;;;;;1.22;100.00;99757.53;5110154;28;20288;-63
2023/01/13 01:08:54;;;;;;;0.03;0.03;;;;;;;1.26;100.00;99754.09;5110044;28;20232;-63
2023/01/13 01:11:24;;;;;;;1.23;0.60;;;;;;;1.32;100.00;99752.25;5109904;28;20197;-64
2023/01/13 01:13:52;;;;;;;0.33;0.33;;;;;;;1.31;100.00;99757.34;5110056;28;20224;-64
2023/01/13 01:16:20;;;;;;;0.40;0.40;;;;;;;1.23;100.00;99760.03;5109769;28;20236;-63
2023/01/13 01:18:50;;;;;;;0.20;0.20;;;;;;;1.13;100.00;99754.41;5109912;28;20724;-63
2023/01/13 01:21:18;;;;;;;0.50;0.50;;;;;;;1.19;100.00;99752.56;5109832;28;20202;-63
2023/01/13 01:23:45;;;;;;;1.00;0.30;;;;;;;1.20;100.00;99749.22;5109882;28;20228;-63
2023/01/13 01:26:14;;;;;;;0.37;0.30;;;;;;;1.17;100.00;99759.34;5109666;28;20208;-63
2023/01/13 01:28:42;;;;;;;0.33;0.33;;;;;;;1.25;100.00;99757.47;5109811;28;20223;-63
2023/01/13 01:31:10;;;;;;;0.13;0.13;;;;;;;1.29;100.00;99754.03;5109528;28;20198;-63
2023/01/13 01:33:37;;;;;;;0.93;0.77;;;;;;;1.22;100.00;99752.50;5109871;28;20221;-64
2023/01/13 01:36:05;;;;;;;0.43;0.43;;;;;;;1.22;100.00;99747.47;5109169;28;20319;-64
2023/01/13 01:38:32;;;;;;;0.27;0.27;;;;;;;1.19;100.00;99748.34;5109869;28;20218;-64
2023/01/13 01:41:00;;;;;;;0.27;0.27;;;;;;;1.16;100.00;99757.69;5109578;28;20208;-63
2023/01/13 01:43:59;;;;;;;0.10;0.10;;;;;;;1.28;100.00;99758.25;5109525;28;20607;-65
2023/01/13 01:46:28;;;;;;;0.60;0.60;;;;;;;1.22;100.00;99747.47;5109806;28;20209;-63
2023/01/13 01:48:58;;;;;;;0.10;0.10;;;;;;;1.18;100.00;99751.75;5109929;28;20213;-63
2023/01/13 01:51:30;;;;;;;0.23;0.23;;;;;;;1.19;100.00;99753.41;5109828;28;20298;-63
2023/01/13 01:54:00;;;;;;;0.30;0.30;;;;;;;1.16;100.00;99757.69;5109664;28;20217;-63
2023/01/13 01:56:27;;;;;;;0.30;0.30;;;;;;;1.17;100.00;99754.31;5109299;28;20229;-63
2023/01/13 01:58:54;;;;;;;0.50;0.50;;;;;;;1.16;100.00;99748.44;5109614;28;20213;-63
2023/01/13 02:01:21;;;;;;;0.33;0.33;;;;;;;1.18;100.00;99753.44;5109412;28;20209;-63
2023/01/13 02:03:56;;;;;;;0.50;0.30;;;;;;;1.20;100.00;99750.03;5109376;28;20231;-63
2023/01/13 02:06:23;;;;;;;0.20;0.20;;;;;;;1.13;100.00;99749.34;5109142;28;20261;-63
2023/01/13 02:08:52;;;;;;;0.30;0.30;;;;;;;1.09;100.00;99751.97;5109197;28;20221;-63
2023/01/13 02:14:15;;;;;;;0.20;0.20;;;;;;;1.11;100.00;99740.19;5110265;28;20611;-64
2023/01/13 02:16:50;;;;;;;0.10;0.10;;;;;;;1.07;100.00;99744.44;5113120;28;20193;-63
2023/01/13 02:19:42;;;;;;;0.10;0.10;;;;;;;1.22;100.00;99740.75;5112699;28;20216;-64
2023/01/13 02:22:44;;;;;;;0.40;0.40;;;;;;;1.22;100.00;99743.28;5113096;28;20203;-63
2023/01/13 02:25:34;;;;;;;0.17;0.17;;;;;;;1.25;100.00;99742.34;5112538;28;20235;-63
2023/01/13 02:28:14;;;;;;;0.20;0.20;;;;;;;1.33;100.00;99735.44;5112899;28;20250;-63
2023/01/13 02:33:45;;;;;;;0.17;0.17;;;;;;;1.33;100.00;99735.44;5101759;28;20296;-63
2023/01/13 02:36:21;;;;;;;0.30;0.30;;;;;;;1.31;100.00;99729.63;5112313;28;20239;-63
2023/01/13 02:38:54;;;;;;;0.30;0.20;;;;;;;1.31;100.00;99727.13;5112493;28;20232;-63
2023/01/13 02:44:18;;;;;;;0.37;0.37;;;;;;;1.33;100.00;99732.94;5112492;28;20224;-64
2023/01/13 02:46:52;;;;;;;0.10;0.10;;;;;;;1.34;100.00;99734.59;5112145;28;20205;-64
2023/01/13 02:49:27;;;;;;;0.30;0.30;;;;;;;1.38;100.00;99738.69;5112536;28;20239;-63
2023/01/13 02:52:00;;;;;;;0.37;0.37;;;;;;;1.34;100.00;99737.13;5112298;27;20200;-63
2023/01/13 02:54:29;;;;;;;0.47;0.47;;;;;;;1.38;100.00;99738.69;5112248;28;20837;-64
2023/01/13 02:56:58;;;;;;;0.30;0.30;;;;;;;1.43;100.00;99741.94;5112151;28;20661;-63
2023/01/13 02:59:26;;;;;;;0.17;0.17;;;;;;;1.39;100.00;99739.50;5112286;28;20224;-63
2023/01/13 03:01:56;;;;;;;0.30;0.30;;;;;;;1.35;100.00;99743.81;5111968;28;20243;-64
2023/01/13 03:04:45;;;;;;;0.10;0.10;;;;;;;1.28;100.00;99744.78;5112601;28;20228;-63
2023/01/13 03:07:17;;;;;;;0.43;0.20;;;;;;;1.20;100.00;99739.97;5112000;28;20200;-63
2023/01/13 03:09:49;;;;;;;0.10;0.10;;;;;;;1.19;100.00;99738.28;5111811;28;20604;-64
2023/01/13 03:12:26;;;;;;;0.10;0.10;;;;;;;1.28;100.00;99743.13;5111842;28;20205;-63
2023/01/13 03:15:03;;;;;;;0.30;0.30;;;;;;;1.34;100.00;99742.97;5111387;27;20236;-63
2023/01/13 03:17:39;;;;;;;0.30;0.30;;;;;;;1.39;100.00;99744.53;5112377;28;20199;-64
2023/01/13 03:20:12;;;;;;;0.20;0.20;;;;;;;1.34;100.00;99752.22;5111422;28;20312;-63
2023/01/13 03:22:49;;;;;;;1.77;0.27;;;;;;;1.38;100.00;99741.22;5111837;28;20190;-62
2023/01/13 03:25:21;;;;;;;0.73;0.30;;;;;;;1.37;100.00;99742.09;5110907;28;20224;-63
2023/01/13 03:27:53;;;;;;;0.20;0.20;;;;;;;1.32;100.00;99743.88;5111513;28;20201;-63
2023/01/13 03:30:24;;;;;;;0.20;0.20;;;;;;;1.33;100.00;99745.53;5111551;28;20224;-64
2023/01/13 03:32:57;;;;;;;0.10;0.10;;;;;;;1.30;100.00;99743.91;5111615;28;20201;-63
2023/01/13 03:35:29;;;;;;;0.30;0.30;;;;;;;1.25;100.00;99744.88;5111232;28;20235;-63
2023/01/13 03:38:02;;;;;;;0.27;0.27;;;;;;;1.28;100.00;99742.28;5111906;28;20197;-63
2023/01/13 03:40:36;;;;;;;0.83;0.50;;;;;;;1.22;100.00;99742.41;5111548;28;20201;-63
2023/01/13 03:45:57;;;;;;;0.10;0.10;;;;;;;1.38;100.00;99743.72;5111296;28;20197;-63
2023/01/13 03:48:28;;;;;;;0.40;0.30;;;;;;;1.33;100.00;99751.38;5111195;28;20225;-64
2023/01/13 03:51:03;;;;;;;0.23;0.23;;;;;;;1.30;100.00;99745.59;5111324;28;20198;-64
2023/01/13 03:53:35;;;;;;;0.23;0.23;;;;;;;1.36;100.00;99745.44;5111398;28;20216;-64
2023/01/13 03:56:09;;;;;;;0.60;0.20;;;;;;;1.33;100.00;99750.56;5111026;28;20232;-64
2023/01/13 03:58:40;;;;;;;0.23;0.23;;;;;;;1.39;100.00;99749.59;5110969;28;20213;-64
2023/01/13 04:01:15;;;;;;;0.43;0.23;;;;;;;1.36;100.00;99750.47;5110790;28;20689;-63
2023/01/13 04:03:49;;;;;;;1.03;0.80;;;;;;;1.36;100.00;99745.44;5111131;28;20224;-64
2023/01/13 04:06:22;;;;;;;0.20;0.20;;;;;;;1.44;100.00;99748.63;5110688;28;20583;-62
2023/01/13 04:08:55;;;;;;;0.20;0.20;;;;;;;1.49;100.00;99751.03;5110567;28;20217;-63
2023/01/13 04:11:31;;;;;;;0.20;0.20;;;;;;;1.36;100.00;99761.38;5110868;28;20189;-63
2023/01/13 04:13:59;;;;;;;0.20;0.20;;;;;;;1.29;100.00;99751.50;5111055;28;20228;-64
2023/01/13 04:16:26;;;;;;;0.17;0.17;;;;;;;1.23;100.00;99759.22;5110671;28;20228;-63
2023/01/13 04:18:55;;;;;;;0.40;0.30;;;;;;;1.25;100.00;99753.28;5110933;28;20224;-63
2023/01/13 04:21:22;;;;;;;0.33;0.33;;;;;;;1.25;100.00;99758.31;5110517;28;20235;-62
2023/01/13 04:23:50;;;;;;;1.27;0.90;;;;;;;1.30;100.00;99753.16;5110314;28;20306;-63
2023/01/13 04:26:18;;;;;;;0.20;0.20;;;;;;;1.27;100.00;99746.50;5110482;28;20205;-63
2023/01/13 04:28:45;;;;;;;0.40;0.37;;;;;;;1.33;100.00;99755.59;5110522;28;20304;-63
2023/01/13 04:31:12;;;;;;;0.10;0.10;;;;;;;1.37;100.00;99752.16;5110319;28;20208;-63
2023/01/13 04:33:40;;;;;;;0.40;0.40;;;;;;;1.34;100.00;99750.53;5110501;28;20244;-63
2023/01/13 04:36:09;;;;;;;0.17;0.17;;;;;;;1.22;100.00;99748.31;5110228;28;20233;-62
2023/01/13 04:38:35;;;;;;;0.10;0.10;;;;;;;1.29;100.00;99749.81;5110192;28;20213;-62
2023/01/13 04:41:02;;;;;;;0.43;0.43;;;;;;;1.34;100.00;99748.03;5110403;28;20197;-62
2023/01/13 04:43:29;;;;;;;0.20;0.20;;;;;;;1.25;100.00;99752.44;5110211;28;20221;-62
2023/01/13 04:45:56;;;;;;;0.27;0.23;;;;;;;1.32;100.00;99754.78;5110321;28;20193;-63
2023/01/13 04:48:23;;;;;;;0.10;0.10;;;;;;;1.35;100.00;99758.91;5110373;28;20221;-62
2023/01/13 04:50:50;;;;;;;0.30;0.30;;;;;;;1.36;100.00;99760.56;5109854;28;20201;-62
2023/01/13 04:53:18;;;;;;;0.20;0.20;;;;;;;1.36;100.00;99763.09;5110162;28;20201;-63
2023/01/13 04:55:46;;;;;;;0.10;0.10;;;;;;;1.29;100.00;99759.88;5109691;28;20221;-62
2023/01/13 04:58:13;;;;;;;0.10;0.10;;;;;;;1.29;100.00;99764.09;5109963;28;20201;-63
2023/01/13 05:00:40;;;;;;;0.43;0.43;;;;;;;1.27;100.00;99768.34;5109879;28;20201;-62
2023/01/13 05:03:07;;;;;;;0.63;0.40;;;;;;;1.31;100.00;99772.47;5109978;28;20201;-63
2023/01/13 05:05:34;;;;;;;0.93;0.47;;;;;;;1.47;100.00;99772.91;5110025;28;20201;-62
2023/01/13 05:08:01;;;;;;;0.10;0.10;;;;;;;1.53;100.00;99781.13;5110420;28;20204;-62
2023/01/13 05:10:29;;;;;;;0.47;0.47;;;;;;;1.45;100.00;99779.66;5109868;28;20200;-62
2023/01/13 05:18:25;;;;;;;0.63;0.60;;;;;;;1.34;100.00;99777.44;5109857;28;20235;-63
2023/01/13 05:20:52;;;;;;;0.23;0.23;;;;;;;1.33;100.00;99783.31;5109708;28;20193;-62
2023/01/13 05:26:05;;;;;;;0.40;0.40;;;;;;;1.29;100.00;99776.69;5109656;28;20737;-62
2023/01/13 05:28:33;;;;;;;0.10;0.10;;;;;;;1.23;100.00;99784.41;5109881;28;20654;-62
2023/01/13 05:31:00;;;;;;;0.43;0.40;;;;;;;1.12;100.00;99777.91;5109595;28;20193;-62
2023/01/13 05:33:27;;;;;;;0.33;0.33;;;;;;;1.21;100.00;99789.47;5109833;28;20228;-62
2023/01/13 05:35:54;;;;;;;0.60;0.60;;;;;;;1.13;100.00;99783.75;5109309;28;20228;-62
2023/01/13 05:38:21;;;;;;;1.23;0.70;;;;;;;1.01;100.00;99779.81;5109615;28;20221;-62
2023/01/13 05:43:34;;;;;;;0.30;0.20;;;;;;;1.11;100.00;99776.25;5109558;28;20358;-62
2023/01/13 05:46:03;;;;;;;0.53;0.53;;;;;;;1.01;100.00;99777.31;5109552;28;20200;-62
2023/01/13 05:48:32;;;;;;;0.30;0.30;;;;;;;0.71;100.00;99770.44;5111572;28;20217;-62
2023/01/13 05:50:59;;;;;;;0.60;0.60;;;;;;;0.75;100.00;99772.00;5113414;28;20194;-62
2023/01/13 05:53:27;;;;;;;1.40;0.33;;;;;;;0.79;100.00;99768.59;5113442;28;20489;-62
2023/01/13 05:55:54;;;;;;;0.40;0.40;;;;;;;0.91;100.00;99773.34;5113059;28;20592;-63
2023/01/13 05:58:23;;;;;;;0.20;0.20;;;;;;;1.05;100.00;99781.44;5113495;28;20233;-62
2023/01/13 06:00:52;;;;;;;0.50;0.50;;;;;;;1.01;100.00;99784.03;5113211;27;20209;-63
2023/01/13 06:03:19;;;;;;;0.63;0.63;;;;;;;0.96;100.00;99781.63;5113129;28;20689;-62
2023/01/13 06:05:47;;;;;;;0.17;0.17;;;;;;;0.98;100.00;99784.94;5113091;28;20201;-62
2023/01/13 06:08:14;;;;;;;1.13;0.70;;;;;;;1.11;100.00;99793.88;5112993;28;20206;-62
2023/01/13 06:10:41;;;;;;;0.30;0.30;;;;;;;1.08;100.00;99783.88;5113060;28;20193;-62
2023/01/13 06:13:08;;;;;;;0.10;0.10;;;;;;;1.10;100.00;99789.69;5112902;28;20197;-62
2023/01/13 06:15:35;;;;;;;0.30;0.30;;;;;;;1.20;100.00;99794.53;5112735;28;20193;-62
2023/01/13 06:18:04;;;;;;;0.63;0.60;;;;;;;1.27;100.00;99796.03;5112961;28;20201;-62
2023/01/13 06:20:32;;;;;;;0.70;0.70;;;;;;;1.29;100.00;99794.31;5112697;28;20204;-62
2023/01/13 06:22:59;;;;;;;0.40;0.30;;;;;;;1.37;100.00;99797.50;5112814;28;20638;-62
2023/01/13 06:25:38;;;;;;;1.10;1.03;;;;;;;1.36;100.00;99803.38;5113108;28;20197;-62
2023/01/13 06:28:05;;;;;;;1.30;0.60;;;;;;;1.34;100.00;99802.63;5113018;28;20208;-62
2023/01/13 06:30:37;;;;;;;1.67;0.73;;;;;;;1.46;100.00;99802.31;5112441;28;20204;-62
2023/01/13 06:33:09;;;;;;;0.10;0.10;;;;;;;1.48;100.00;99809.84;5112793;28;20246;-62
2023/01/13 06:35:39;;;;;;;0.37;0.37;;;;;;;1.57;100.00;99807.94;5112307;28;20197;-62
2023/01/13 06:38:10;;;;;;;0.30;0.30;;;;;;;1.62;100.00;99807.00;5112424;28;20197;-62
2023/01/13 06:40:37;;;;;;;0.20;0.20;;;;;;;1.64;100.00;99820.41;5112370;28;20216;-62
2023/01/13 06:43:16;;;;;;;0.30;0.30;;;;;;;1.64;100.00;99815.34;5112413;28;20248;-62
2023/01/13 06:45:49;;;;;;;0.23;0.23;;;;;;;1.68;100.00;99817.75;5112530;28;20769;-62
2023/01/13 06:48:18;;;;;;;0.73;0.73;;;;;;;1.70;100.00;99813.50;5112036;28;20302;-62
2023/01/13 06:50:45;;;;;;;0.90;0.67;;;;;;;1.73;100.00;99815.13;5112296;28;20197;-62
2023/01/13 06:53:12;;;;;;;0.30;0.30;;;;;;;1.73;100.00;99812.59;5112100;28;20205;-62
2023/01/13 06:55:39;;;;;;;1.90;1.20;;;;;;;1.76;100.00;99820.09;5112095;28;20557;-62
2023/01/13 06:58:06;;;;;;;0.70;0.70;;;;;;;1.77;100.00;99821.72;5112278;27;20223;-62
2023/01/13 07:00:34;;;;;;;0.70;0.70;;;;;;;1.79;100.00;99822.53;5111213;28;20205;-62
2023/01/13 07:03:09;;;;;;;0.30;0.30;;;;;;;1.87;100.00;99825.69;5112370;28;20205;-62
2023/01/13 07:05:37;;;;;;;0.30;0.30;;;;;;;1.90;100.00;99830.66;5112152;28;20196;-62
2023/01/13 07:08:04;;;;;;;1.17;0.97;;;;;;;1.92;100.00;99826.44;5112009;28;20731;-62
2023/01/13 07:10:32;;;;;;;0.30;0.30;;;;;;;1.93;100.00;99823.03;5112262;28;20197;-61
2023/01/13 07:15:54;;;;;;;2.13;1.20;;;;;;;1.88;100.00;99824.00;5111775;28;20203;-62
2023/01/13 07:18:21;;;;;;;0.57;0.57;;;;;;;1.93;100.00;99825.53;5111928;28;20204;-62
2023/01/13 07:20:54;;;;;;;1.03;0.90;;;;;;;1.98;100.00;99830.50;5111747;28;20193;-62
2023/01/13 07:23:21;;;;;;;2.03;1.07;;;;;;;2.00;100.00;99832.06;5111640;28;20208;-62
2023/01/13 07:25:48;;;;;;;0.67;0.67;;;;;;;2.02;100.00;99816.91;5111457;28;20193;-62
2023/01/13 07:28:15;;;;;;;2.17;1.80;;;;;;;2.08;100.00;99829.38;5111497;28;20201;-62
2023/01/13 07:30:42;;;;;;;0.33;0.33;;;;;;;2.12;100.00;99827.59;5111480;28;20189;-62
2023/01/13 07:33:09;;;;;;;1.37;0.90;;;;;;;2.19;100.00;99834.16;5111381;28;20193;-61
2023/01/13 07:35:35;;;;;;;1.17;1.07;;;;;;;2.24;100.00;99832.31;5109884;28;20204;-62
2023/01/13 07:38:04;;;;;;;0.73;0.53;;;;;;;2.29;100.00;99840.59;5111226;28;20324;-62
2023/01/13 07:40:31;;;;;;;0.40;0.40;;;;;;;2.35;100.00;99842.13;5111552;28;20215;-62
2023/01/13 07:45:41;;;;;;;0.33;0.33;;;;;;;2.37;100.00;99838.69;5103892;28;20189;-62
2023/01/13 07:48:08;;;;;;;0.47;0.47;;;;;;;2.42;100.00;99847.00;5111015;28;20197;-62
2023/01/13 07:50:35;;;;;;;2.30;0.40;;;;;;;2.45;100.00;99846.91;5111148;28;20189;-62
2023/01/13 07:53:01;;;;;;;0.50;0.50;;;;;;;2.44;100.00;99845.25;5111050;28;20568;-62
2023/01/13 07:55:30;;;;;;;0.50;0.47;;;;;;;2.54;100.00;99839.97;5110903;28;20193;-62
2023/01/13 07:57:56;;;;;;;0.27;0.27;;;;;;;2.54;100.00;99850.06;5110782;28;20231;-62
2023/01/13 08:00:24;;;;;;;0.20;0.20;;;;;;;2.60;100.00;99850.72;5110873;28;20221;-61
2023/01/13 08:02:51;;;;;;;0.37;0.37;;;;;;;2.67;100.00;99856.41;5110869;28;20201;-61
2023/01/13 08:05:18;;;;;;;0.40;0.40;;;;;;;2.67;100.00;99851.34;5111144;28;20221;-62
2023/01/13 08:07:44;;;;;;;2.13;0.33;;;;;;;2.61;100.00;99856.56;5110753;28;20205;-62
2023/01/13 08:10:12;;;;;;;0.17;0.17;;;;;;;2.65;100.00;99853.13;5110515;28;20221;-61
2023/01/13 08:15:24;;;;;;;0.40;0.40;;;;;;;2.78;100.00;99849.38;5111201;28;20220;-62
2023/01/13 08:17:51;;;;;;;1.07;0.50;;;;;;;2.76;100.00;99860.38;5110350;28;20224;-61
2023/01/13 08:20:18;;;;;;;0.93;0.60;;;;;;;2.89;100.00;99857.47;5110413;28;20215;-61
2023/01/13 08:22:45;;;;;;;0.20;0.20;;;;;;;2.91;100.00;99860.78;5110358;28;20201;-61
2023/01/13 08:25:12;;;;;;;0.53;0.53;;;;;;;2.94;100.00;99859.88;5110324;28;20209;-61
2023/01/13 08:27:40;;;;;;;0.47;0.43;;;;;;;3.01;100.00;99865.56;5110346;28;20201;-62
2023/01/13 08:30:08;;;;;;;0.37;0.37;;;;;;;2.65;100.00;99864.03;5110481;28;20296;-61
2023/01/13 08:32:35;;;;;;;5.10;0.77;;;;;;;2.70;100.00;99861.38;5110282;27;20193;-61
2023/01/13 08:35:02;;;;;;;2.77;0.97;;;;;;;2.68;100.00;99863.94;5110586;28;20686;-62
2023/01/13 08:37:28;;;;;;;0.50;0.50;;;;;;;2.70;100.00;99864.72;5110030;28;20237;-62
2023/01/13 08:39:55;;;;;;;0.83;0.63;;;;;;;2.56;100.00;99863.44;5110655;28;20209;-62
2023/01/13 08:42:22;;;;;;;0.40;0.40;;;;;;;2.73;100.00;99856.22;5110216;28;20208;-62
2023/01/13 08:44:50;;;;;;;0.93;0.93;;;;;;;2.77;100.00;99857.81;5109992;28;20225;-61
2023/01/13 08:47:17;;;;;;;1.27;1.07;;;;;;;2.94;100.00;99850.59;5110024;28;20208;-62
2023/01/13 08:49:44;;;;;;;0.20;0.20;;;;;;;2.90;100.00;99863.34;5110441;28;20225;-62
2023/01/13 08:52:11;;;;;;;0.87;0.87;;;;;;;2.74;100.00;99857.09;5110035;28;20201;-61
2023/01/13 08:54:39;;;;;;;0.60;0.60;;;;;;;2.84;100.00;99853.41;5109844;28;20623;-61
2023/01/13 08:57:06;;;;;;;0.60;0.60;;;;;;;2.82;100.00;99850.94;5109964;28;20232;-61
2023/01/13 08:59:33;;;;;;;1.17;0.47;;;;;;;2.81;100.00;99854.31;5110131;28;20217;-61
2023/01/13 09:02:02;;;;;;;0.60;0.60;;;;;;;2.89;100.00;99844.84;5110565;28;20205;-61
2023/01/13 09:04:29;;;;;;;0.40;0.40;;;;;;;2.97;100.00;99846.31;5110642;28;20248;-61
2023/01/13 09:06:56;;;;;;;1.00;0.87;;;;;;;2.98;100.00;99841.22;5110072;28;20585;-61
2023/01/13 09:09:26;;;;;;;0.40;0.40;;;;;;;2.86;100.00;99842.41;5110077;28;20221;-61
2023/01/13 09:14:38;;;;;;;0.47;0.47;;;;;;;3.09;100.00;99833.34;5110028;28;20242;-62
2023/01/13 09:17:07;;;;;;;0.70;0.50;;;;;;;3.17;100.00;99833.91;5109561;28;20228;-62
2023/01/13 09:19:34;;;;;;;0.43;0.43;;;;;;;2.79;100.00;99840.91;5110135;28;20221;-62
2023/01/13 09:22:01;;;;;;;0.50;0.40;;;;;;;3.03;100.00;99834.34;5109742;28;20203;-61
2023/01/13 09:24:28;;;;;;;0.70;0.70;;;;;;;3.02;100.00;99844.47;5113311;28;20751;-61
2023/01/13 09:26:55;;;;;;;1.40;0.80;;;;;;;2.78;100.00;99833.41;5114042;28;20204;-63
2023/01/13 09:29:22;;;;;;;0.73;0.73;;;;;;;2.87;100.00;99833.94;5113946;28;20221;-63
2023/01/13 09:31:49;;;;;;;2.30;0.97;;;;;;;2.85;100.00;99835.72;5113809;28;20201;-61
2023/01/13 09:37:06;;;;;;;1.30;0.50;;;;;;;3.11;100.00;99837.47;5113574;28;20235;-60
2023/01/13 09:39:34;;;;;;;0.57;0.57;;;;;;;3.01;100.00;99835.25;5113817;28;20217;-61
2023/01/13 09:44:56;;;;;;;0.20;0.20;;;;;;;3.05;100.00;99831.75;5113969;28;20720;-60
2023/01/13 09:47:29;;;;;;;0.20;0.20;;;;;;;3.01;100.00;99831.03;5113918;28;20196;-60
2023/01/13 09:50:03;;;;;;;0.60;0.60;;;;;;;3.05;100.00;99826.72;5113458;28;20228;-62
2023/01/13 09:52:30;;;;;;;0.67;0.60;;;;;;;3.09;100.00;99833.34;5113826;28;20208;-60
2023/01/13 09:55:02;;;;;;;0.67;0.60;;;;;;;3.10;100.00;99827.41;5113875;28;20210;-60
2023/01/13 09:57:34;;;;;;;0.73;0.73;;;;;;;3.12;100.00;99828.19;5113419;28;20232;-60
2023/01/13 10:00:01;;;;;;;1.80;0.90;;;;;;;3.11;100.00;99818.94;5113338;28;20213;-60
2023/01/13 10:02:53;;;;;;;0.50;0.50;;;;;;;3.31;100.00;99819.16;5113153;28;20208;-60
2023/01/13 10:05:32;;;;;;;0.40;0.40;;;;;;;3.12;100.00;99820.63;5113079;28;20224;-62
2023/01/13 10:08:04;;;;;;;0.53;0.53;;;;;;;3.20;100.00;99810.25;5113189;28;20196;-61
2023/01/13 10:10:36;;;;;;;0.80;0.63;;;;;;;3.00;100.00;99813.41;5113308;28;20209;-62
2023/01/13 10:13:14;;;;;;;1.10;1.10;;;;;;;3.03;100.00;99806.56;5113016;28;20198;-60
2023/01/13 10:15:45;;;;;;;0.30;0.30;;;;;;;3.11;100.00;99808.84;5113180;28;20293;-60
2023/01/13 10:18:18;;;;;;;1.03;0.93;;;;;;;3.04;100.00;99805.69;5112781;28;20289;-60
2023/01/13 10:20:54;;;;;;;0.40;0.40;;;;;;;3.19;100.00;99794.28;5112796;28;20204;-60
2023/01/13 10:23:50;;;;;;;2.33;0.60;;;;;;;3.35;100.00;99794.66;5112660;28;20217;-61
2023/01/13 10:26:29;;;;;;;0.27;0.27;;;;;;;3.42;100.00;99790.22;5112633;28;20205;-62
2023/01/13 10:28:56;;;;;;;0.83;0.73;;;;;;;3.47;100.00;99789.19;5112899;28;20275;-60
2023/01/13 10:31:25;;;;;;;0.63;0.60;;;;;;;3.60;100.00;99792.16;5112733;28;20665;-60
2023/01/13 10:33:59;;;;;;;0.70;0.70;;;;;;;3.75;100.00;99789.16;5112437;28;20717;-61
2023/01/13 10:36:27;;;;;;;0.17;0.17;;;;;;;3.74;100.00;99777.34;5111701;28;20201;-62
2023/01/13 10:39:07;;;;;;;0.27;0.27;;;;;;;3.95;100.00;99785.09;5112397;28;20241;-61
2023/01/13 10:41:35;;;;;;;0.20;0.20;;;;;;;3.96;100.00;99786.78;5112735;28;20192;-60
2023/01/13 10:44:04;;;;;;;1.43;0.50;;;;;;;3.99;100.00;99782.44;5112394;28;20251;-60
2023/01/13 10:46:33;;;;;;;0.37;0.37;;;;;;;3.96;100.00;99784.25;5112320;28;20216;-61
2023/01/13 10:49:02;;;;;;;0.60;0.43;;;;;;;4.01;100.00;99780.66;5112523;28;20221;-62
2023/01/13 10:51:42;;;;;;;1.17;0.70;;;;;;;3.74;100.00;99782.41;5112318;28;20207;-62
2023/01/13 10:54:21;;;;;;;0.77;0.57;;;;;;;3.93;100.00;99776.75;5112477;28;20729;-62
2023/01/13 10:56:48;;;;;;;0.43;0.43;;;;;;;3.53;100.00;99773.00;5112082;28;20209;-60
2023/01/13 10:59:22;;;;;;;1.17;1.07;;;;;;;3.09;100.00;99765.13;5111852;28;20268;-60
2023/01/13 11:01:58;;;;;;;0.83;0.63;;;;;;;3.24;100.00;99757.06;5111964;28;20629;-60
2023/01/13 11:04:29;;;;;;;0.30;0.30;;;;;;;3.38;100.00;99744.81;5112587;28;20229;-62
2023/01/13 11:06:58;;;;;;;1.13;0.50;;;;;;;3.03;100.00;99747.63;5112427;28;20189;-62
2023/01/13 11:09:27;;;;;;;0.97;0.83;;;;;;;3.27;100.00;99746.03;5112469;28;20217;-62
2023/01/13 11:11:55;;;;;;;0.33;0.33;;;;;;;3.46;100.00;99743.72;5111867;28;20204;-60
2023/01/13 11:14:35;;;;;;;0.73;0.67;;;;;;;3.55;100.00;99736.69;5111716;28;20220;-60
2023/01/13 11:17:08;;;;;;;1.00;0.80;;;;;;;3.68;100.00;99749.75;5111795;28;20193;-62
2023/01/13 11:19:41;;;;;;;3.73;0.40;;;;;;;3.77;100.00;99746.91;5111684;28;20228;-62
2023/01/13 11:22:12;;;;;;;0.10;0.10;;;;;;;3.88;100.00;99743.19;5111653;28;20742;-62
2023/01/13 11:24:43;;;;;;;0.47;0.47;;;;;;;4.00;100.00;99747.81;5111662;28;20627;-62
2023/01/13 11:27:15;;;;;;;1.00;0.83;;;;;;;3.84;100.00;99750.91;5111921;28;20243;-61
2023/01/13 11:29:53;;;;;;;0.37;0.37;;;;;;;3.89;100.00;99740.59;5111743;28;20220;-62
2023/01/13 11:32:23;;;;;;;0.87;0.77;;;;;;;3.88;100.00;99738.13;5111565;28;20582;-61
2023/01/13 11:34:55;;;;;;;0.97;0.97;;;;;;;3.91;100.00;99738.03;5111274;28;20213;-62
2023/01/13 11:37:26;;;;;;;1.20;0.87;;;;;;;3.95;100.00;99737.03;5111204;28;20229;-60
2023/01/13 11:40:00;;;;;;;0.20;0.20;;;;;;;3.91;100.00;99735.50;5111874;28;20213;-61
2023/01/13 11:42:32;;;;;;;2.03;0.60;;;;;;;3.92;100.00;99732.09;5111661;28;20193;-60
2023/01/13 11:45:17;;;;;;;0.33;0.30;;;;;;;3.86;100.00;99735.66;5111326;28;20221;-61
2023/01/13 11:47:48;;;;;;;0.60;0.60;;;;;;;3.88;100.00;99728.84;5110816;28;20582;-61
2023/01/13 11:50:18;;;;;;;0.80;0.80;;;;;;;3.82;100.00;99724.81;5111158;28;20300;-62
2023/01/13 11:53:09;;;;;;;1.00;0.83;;;;;;;3.88;100.00;99722.97;5111100;28;20212;-63
2023/01/13 11:55:49;;;;;;;0.30;0.30;;;;;;;3.83;100.00;99725.63;5111273;28;20280;-61
2023/01/13 11:58:41;;;;;;;0.70;0.60;;;;;;;3.84;100.00;99725.59;5110908;28;20241;-61
2023/01/13 12:01:20;;;;;;;1.90;0.90;;;;;;;3.82;100.00;99724.81;5110977;28;20194;-61
2023/01/13 12:04:00;;;;;;;0.50;0.50;;;;;;;3.78;100.00;99724.97;5110190;28;20228;-62
2023/01/13 12:06:34;;;;;;;2.57;1.03;;;;;;;3.74;100.00;99721.72;5110463;28;20197;-61
2023/01/13 12:09:22;;;;;;;0.30;0.30;;;;;;;3.74;100.00;99726.78;5111020;28;20217;-61
2023/01/13 12:12:21;;;;;;;0.60;0.60;;;;;;;3.76;100.00;99719.97;5110806;28;20193;-61
2023/01/13 12:15:07;;;;;;;1.53;0.50;;;;;;;3.66;100.00;99710.22;5111050;28;20228;-61
2023/01/13 12:17:44;;;;;;;0.33;0.33;;;;;;;3.65;100.00;99711.09;5110830;28;20216;-62
2023/01/13 12:20:30;;;;;;;0.50;0.50;;;;;;;3.75;100.00;99708.22;5110537;28;20215;-62
2023/01/13 12:23:01;;;;;;;0.30;0.30;;;;;;;3.72;100.00;99708.28;5110656;28;20201;-62
2023/01/13 12:25:35;;;;;;;1.23;1.13;;;;;;;3.62;100.00;99709.50;5110835;28;20730;-62
2023/01/13 12:28:07;;;;;;;0.83;0.27;;;;;;;3.59;100.00;99707.06;5110315;28;20250;-61
2023/01/13 12:30:40;;;;;;;1.90;0.63;;;;;;;3.65;100.00;99711.91;5110544;28;20201;-62